Hawaii METAR Reports

 

PHOG - Kahului, Hawaii, USA
Distance from station: WNW 8mi, 13km
Updated: Sat, 25-May-2019 6:54pm HST
Few Clouds
Few Clouds
 Wind from NNE
Wind: NNE 17 mph , 28 km/h
Temperature: 81°F , 27°C
Heat Index: 83°F , 28°C
Dew Point: 66°F , 19°C
Humidity: 62%
Barometer: 30.04 inHg , 1017.3 hPa
Clouds: Few Clouds
Visibility: 10 miles , 16 km
Cloud details: Few Clouds 5000 ft
2019/05/26 04:54 PHOG 260454Z 02015KT 10SM FEW050 27/19 A3004 RMK AO2 SLP176 T02670194 $
PHJH - Lahaina/West Mau, Hawaii, USA
Distance from station: WNW 24mi, 39km
Updated: Sat, 25-May-2019 5:45pm HST
NOT Current
Partly Cloudy
Partly Cloudy
 Wind from NE
Wind: NE 16 mph , 26 km/h
Temperature: 82°F , 28°C
Heat Index: 84°F , 29°C
Dew Point: 64°F , 18°C
Humidity: 55%
Barometer: 30.03 inHg , 1016.9 hPa
Clouds: Partly Cloudy
Visibility: 10 miles , 16 km
Cloud details: Few Clouds 3000 ft
Partly Cloudy 5000 ft
2019/05/26 03:45 PHJH 260345Z 05014KT 10SM FEW030 SCT050 28/18 A3003 RMK LAST
 
PHNY - Lanai City Airpo, Hawaii, USA
Distance from station: W 40mi, 65km
Updated: Sat, 25-May-2019 6:56pm HST
Clear
Clear
 Wind from ENE
Wind: ENE 15 mph , 24 km/h
Temperature: 72°F , 22°C
Dew Point: 70°F , 21°C
Humidity: 94%
Barometer: 30.10 inHg , 1019.3 hPa
Clouds: Clear
Visibility: 10 miles , 16 km
2019/05/26 04:56 PHNY 260456Z AUTO 07013KT 10SM CLR 22/21 A3010 RMK AO2 SLP172 T02170211
PHMK - Molokai, Hawaii, USA
Distance from station: WNW 55mi, 88km
Updated: Sat, 25-May-2019 6:54pm HST
Clear
Clear
 Wind from NE
Wind: NE 9 mph , 15 km/h
Temperature: 77°F , 25°C
Dew Point: 70°F , 21°C
Humidity: 79%
Barometer: 30.06 inHg , 1017.9 hPa
Clouds: Clear
Visibility: 10 miles , 16 km
2019/05/26 04:54 PHMK 260454Z AUTO 05008KT 10SM CLR 25/21 A3006 RMK AO2 SLP182 T02500206 TSNO
 
PHKO - Kailua/Kona, Hawaii, USA
Distance from station: SSE 79mi, 128km
Updated: Sat, 25-May-2019 6:53pm HST
Mostly Cloudy
Mostly Cloudy
 Wind from SW
Wind: SW 9 mph , 15 km/h
Temperature: 81°F , 27°C
Heat Index: 85°F , 29°C
Dew Point: 72°F , 22°C
Humidity: 74%
Barometer: 30.00 inHg , 1015.9 hPa
Clouds: Mostly Cloudy
Visibility: 10 miles , 16 km
Cloud details: Partly Cloudy 4500 ft
Mostly Cloudy 7000 ft
2019/05/26 04:53 PHKO 260453Z 23008KT 10SM SCT045 BKN070 27/22 A3000 RMK AO2 SLP160 T02720217
PHSF - Bradshaw Aaf/Haw, Hawaii, USA
Distance from station: SE 90mi, 145km
Updated: Fri, 24-May-2019 1:55pm HST
NOT Current
Partly Cloudy
Partly Cloudy
 Wind from SW
Wind: SW 8 mph , 13 km/h
Temperature: 68°F , 20°C
Dew Point: 55°F , 13°C
Humidity: 64%
Barometer: 30.37 inHg , 1028.4 hPa
Clouds: Partly Cloudy
Visibility: 10 miles , 16 km
Cloud details: Few Clouds 2000 ft
Partly Cloudy 3000 ft
2019/05/24 23:55 PHSF 242355Z 23007KT 10SM FEW020 SCT030 20/13 A3037 RMK SLPNO
 
PHNG - Kaneohe Mcas, Hawaii, USA
Distance from station: WNW 102mi, 164km
Updated: Sat, 25-May-2019 6:57pm HST
Clear
Clear
 Wind from ENE
Wind: ENE 9 mph , 15 km/h
Temperature: 81°F , 27°C
Heat Index: 85°F , 29°C
Dew Point: 70°F , 21°C
Humidity: 70%
Barometer: 30.04 inHg , 1017.3 hPa
Clouds: Clear
Visibility: 10 miles , 16 km
2019/05/26 04:57 PHNG 260457Z 07008KT 10SM CLR 27/21 A3004 RMK AO2 SLP168 T02670206 $
PHNL - Honolulu, Hawaii, USA
Distance from station: WNW 108mi, 174km
Updated: Sat, 25-May-2019 6:53pm HST
Mostly Cloudy
Mostly Cloudy
 Wind from NE
Wind: NE 13 mph , 20 km/h
Temperature: 82°F , 28°C
Heat Index: 84°F , 29°C
Dew Point: 66°F , 19°C
Humidity: 58%
Barometer: 30.04 inHg , 1017.3 hPa
Clouds: Mostly Cloudy
Visibility: 10 miles , 16 km
Cloud details: Few Clouds 2500 ft
Partly Cloudy 10000 ft
Mostly Cloudy 15000 ft
2019/05/26 04:53 PHNL 260453Z 04011KT 10SM FEW025 SCT100 BKN150 28/19 A3004 RMK AO2 SLP172 T02780189 $
 
PHTO - Hilo, Hawaii, USA
Distance from station: SE 114mi, 183km
Updated: Sat, 25-May-2019 6:53pm HST
Mostly Cloudy
Mostly Cloudy
 Wind from ENE
Wind: ENE 5 mph , 7 km/h
Temperature: 79°F , 26°C
Dew Point: 68°F , 20°C
Humidity: 70%
Barometer: 30.07 inHg , 1018.3 hPa
Clouds: Mostly Cloudy
Visibility: 10 miles , 16 km
Cloud details: Few Clouds 2100 ft
Partly Cloudy 2800 ft
Mostly Cloudy 3600 ft
2019/05/26 04:53 PHTO 260453Z 07004KT 10SM FEW021 SCT028 BKN036 26/20 A3007 RMK AO2 SLP180 T02560200
PHJR - Kalaeloa, Hawaii, USA
Distance from station: WNW 117mi, 189km
Updated: Sat, 25-May-2019 6:53pm HST
Few Clouds
Few Clouds
 Wind from NE
Wind: NE 6 mph , 9 km/h
Temperature: 81°F , 27°C
Heat Index: 83°F , 28°C
Dew Point: 64°F , 18°C
Humidity: 58%
Barometer: 30.06 inHg , 1017.9 hPa
Clouds: Few Clouds
Visibility: 10 miles , 16 km
Cloud details: Few Clouds 4900 ft
2019/05/26 04:53 PHJR 260453Z 04005KT 10SM FEW049 27/18 A3006 RMK AO2 SLP184 T02720183
 
PHHI - Wheeler Afb/Oahu, Hawaii, USA
Distance from station: WNW 120mi, 193km
Updated: Sat, 25-May-2019 6:56pm HST
Clear
Clear
 Wind from calm
Wind: Calm
Temperature: 75°F , 24°C
Dew Point: 66°F , 19°C
Humidity: 74%
Barometer: 30.06 inHg , 1017.9 hPa
Clouds: Clear
Visibility: 10 miles , 16 km
2019/05/26 04:56 PHHI 260456Z AUTO 00000KT 10SM CLR 24/19 A3006 RMK AO2 SLP170 T02350190 $
PHLI - Lihue/Kauai Is, Hawaii, USA
Distance from station: WNW 209mi, 336km
Updated: Sat, 25-May-2019 7:04pm HST
Mostly Cloudy
Mostly Cloudy
 Wind from ENE
Wind: ENE 10 mph , 17 km/h
Temperature: 75°F , 24°C
Dew Point: 70°F , 21°C
Humidity: 83%
Barometer: 30.08 inHg , 1018.6 hPa
Clouds: Mostly Cloudy
Visibility: 10 miles , 16 km
Cloud details: Mostly Cloudy 2000 ft
2019/05/26 05:04 PHLI 260504Z 06009KT 10SM BKN020 24/21 A3008 RMK AO2 T02440206
 
PHBK - Barking Sands/Ka, Hawaii, USA
Distance from station: WNW 237mi, 382km
Updated: Sat, 25-May-2019 6:56pm HST
Overcast
Overcast
 Wind from NW
Wind: NW 5 mph , 7 km/h
Temperature: 81°F , 27°C
Heat Index: 87°F , 31°C
Dew Point: 75°F , 24°C
Humidity: 84%
Barometer: 30.04 inHg , 1017.3 hPa
Clouds: Overcast
Visibility: 10 miles , 16 km
Cloud details: Overcast 6000 ft
2019/05/26 04:56 PHBK 260456Z AUTO 32004KT 10SM OVC060 27/24 A3004 RMK AO2 SLP173 T02720239